Time;durP1;ratioP1;P1;durP2;ratioP2;P2;SDS_P1;SDS_P2;PMS_P1;PMS_P2;Temp;Humidity;BMP_temperature;BMP_pressure;BME280_temperature;BME280_humidity;BME280_pressure;Samples;Min_cycle;Max_cycle;Signal;HPM_P1;HPM_P2
2022/08/11 00:01:50;;;;;;;7.37;5.30;;;;;;;20.68;56.52;102141.66;5121578;28;20500;-66
2022/08/11 00:04:17;;;;;;;6.33;4.50;;;;;;;20.78;56.24;102141.56;5121371;28;20411;-66
2022/08/11 00:06:44;;;;;;;10.50;5.13;;;;;;;20.88;56.00;102131.72;5121758;28;20404;-66
2022/08/11 00:09:21;;;;;;;6.80;5.20;;;;;;;20.32;57.72;102130.50;5121969;28;20689;-66
2022/08/11 00:11:51;;;;;;;4.53;4.13;;;;;;;20.14;58.36;102139.44;5121385;28;20478;-66
2022/08/11 00:14:24;;;;;;;9.67;5.23;;;;;;;20.23;58.16;102146.47;5121972;27;20405;-66
2022/08/11 00:16:58;;;;;;;7.00;4.77;;;;;;;20.49;57.27;102142.69;5121859;28;20464;-66
2022/08/11 00:19:38;;;;;;;5.43;4.93;;;;;;;20.74;56.71;102143.34;5121813;28;20809;-66
2022/08/11 00:22:05;;;;;;;5.67;4.30;;;;;;;20.42;57.50;102138.31;5121283;28;20413;-66
2022/08/11 00:24:37;;;;;;;9.90;5.10;;;;;;;20.51;57.60;102138.25;5121720;28;20409;-67
2022/08/11 00:27:04;;;;;;;5.87;4.40;;;;;;;21.13;55.47;102141.16;5121850;28;20417;-67
2022/08/11 00:29:30;;;;;;;6.03;4.70;;;;;;;20.34;57.46;102146.38;5121174;28;20729;-67
2022/08/11 00:31:57;;;;;;;5.40;4.50;;;;;;;20.25;58.25;102143.78;5122177;28;20406;-65
2022/08/11 00:34:25;;;;;;;5.50;4.50;;;;;;;20.14;58.09;102141.22;5120882;28;20163;-66
2022/08/11 00:37:08;;;;;;;5.90;4.27;;;;;;;20.10;58.60;102144.78;5121686;28;20428;-67
2022/08/11 00:39:40;;;;;;;5.97;4.57;;;;;;;19.99;59.11;102139.59;5121524;28;20413;-65
2022/08/11 00:42:24;;;;;;;5.40;4.90;;;;;;;19.99;58.78;102150.16;5121667;28;20409;-66
2022/08/11 00:45:05;;;;;;;7.20;4.63;;;;;;;20.06;58.74;102146.56;5121292;28;20425;-66
2022/08/11 00:47:30;;;;;;;6.03;4.43;;;;;;;20.42;57.87;102138.31;5121382;28;20470;-65
2022/08/11 00:50:18;;;;;;;5.20;4.47;;;;;;;20.26;57.84;102143.78;5121178;28;20401;-66
2022/08/11 00:53:12;;;;;;;5.60;4.17;;;;;;;20.02;58.74;102145.75;5120475;28;20171;-67
2022/08/11 00:56:15;;;;;;;7.30;4.80;;;;;;;20.06;58.96;102149.22;5121022;28;20766;-66
2022/08/11 00:59:10;;;;;;;6.30;4.70;;;;;;;20.08;58.61;102146.56;5120594;28;20464;-66
2022/08/11 01:01:35;;;;;;;6.10;4.33;;;;;;;19.64;60.01;102149.47;5121150;28;20798;-67
2022/08/11 01:04:40;;;;;;;9.30;4.80;;;;;;;20.06;59.18;102149.22;5121016;28;20423;-66
2022/08/11 01:07:25;;;;;;;10.43;4.90;;;;;;;20.20;58.60;102143.81;5121111;28;20171;-66
2022/08/11 01:09:55;;;;;;;8.50;4.60;;;;;;;19.91;59.38;102150.22;5120507;28;20777;-66
2022/08/11 01:12:38;;;;;;;6.53;4.60;;;;;;;19.69;59.89;102145.03;5120059;28;20461;-65
2022/08/11 01:15:41;;;;;;;6.67;4.90;;;;;;;19.88;60.15;102147.59;5120647;28;20485;-65
2022/08/11 01:18:18;;;;;;;5.57;4.87;;;;;;;20.22;58.79;102146.47;5120563;28;20464;-66
2022/08/11 01:20:52;;;;;;;7.53;4.87;;;;;;;20.07;58.78;102142.19;5120787;28;20380;-66
2022/08/11 01:23:36;;;;;;;5.23;4.73;;;;;;;19.66;60.26;102144.16;5120559;28;20409;-66
2022/08/11 01:26:34;;;;;;;5.57;4.97;;;;;;;19.58;60.45;102143.31;5120761;28;20821;-66
2022/08/11 01:29:18;;;;;;;5.20;4.70;;;;;;;19.79;60.08;102145.84;5120543;28;20409;-67
2022/08/11 01:31:59;;;;;;;7.03;4.83;;;;;;;19.61;60.59;102151.25;5120985;28;20717;-66
2022/08/11 01:34:49;;;;;;;5.63;4.60;;;;;;;19.40;61.43;102150.47;5119800;28;20417;-66
2022/08/11 01:37:15;;;;;;;6.43;4.87;;;;;;;19.49;61.00;102146.91;5120390;28;20594;-67
2022/08/11 01:39:58;;;;;;;6.60;4.47;;;;;;;19.37;61.42;102144.31;5120328;28;20433;-67
2022/08/11 01:45:47;;;;;;;6.57;4.90;;;;;;;19.32;61.76;102147.88;5119839;28;20416;-67
2022/08/11 01:48:14;;;;;;;5.73;4.77;;;;;;;19.25;62.34;102150.53;5120201;28;20740;-66
2022/08/11 01:50:52;;;;;;;5.60;4.90;;;;;;;19.38;61.88;102144.31;5120117;28;20409;-65
2022/08/11 01:53:44;;;;;;;5.30;4.80;;;;;;;19.35;62.00;102146.97;5119858;28;20391;-66
2022/08/11 01:57:09;;;;;;;5.60;4.73;;;;;;;19.39;61.85;102150.47;5119341;28;20475;-65
2022/08/11 01:59:48;;;;;;;6.37;4.80;;;;;;;19.55;61.62;102138.06;5037761;28;20528;-66
2022/08/11 02:02:47;;;;;;;5.23;4.50;;;;;;;19.39;61.70;102147.81;5022188;28;20682;-65
2022/08/11 02:05:31;;;;;;;5.40;4.90;;;;;;;19.52;61.54;102145.13;5102172;28;20432;-66
2022/08/11 02:08:07;;;;;;;6.20;5.20;;;;;;;19.31;62.14;102135.53;5119854;28;20417;-65
2022/08/11 02:13:48;;;;;;;4.87;4.40;;;;;;;19.17;62.80;102132.94;5119584;28;20469;-65
2022/08/11 02:17:10;;;;;;;6.27;5.13;;;;;;;19.22;62.39;102135.56;5119137;28;20392;-65
2022/08/11 02:25:53;;;;;;;5.53;4.90;;;;;;;19.05;63.36;102129.47;5116318;28;20496;-66
2022/08/11 02:28:20;;;;;;;10.17;4.87;;;;;;;19.16;62.60;102125.91;5118959;28;20423;-67
2022/08/11 02:33:21;;;;;;;11.87;5.03;;;;;;;19.43;62.57;102128.41;5118916;28;20773;-66
2022/08/11 02:33:43;;;;;;;8.20;5.63;;;;;;;19.43;62.26;102126.66;5118515;28;20504;-67
2022/08/11 02:36:32;;;;;;;8.37;5.13;;;;;;;18.93;63.65;102123.34;5118559;28;20410;-65
2022/08/11 02:39:02;;;;;;;5.37;4.87;;;;;;;19.21;63.11;102123.22;5118606;28;20437;-65
2022/08/11 02:44:24;;;;;;;8.10;4.90;;;;;;;19.03;63.64;102124.19;5119018;28;20411;-66
2022/08/11 02:47:09;;;;;;;10.20;4.67;;;;;;;19.73;61.89;102122.09;5119158;28;20407;-66
2022/08/11 02:49:54;;;;;;;5.50;4.93;;;;;;;19.79;61.46;102119.38;5118345;28;20171;-65
2022/08/11 02:52:44;;;;;;;13.67;5.57;;;;;;;19.82;61.22;102127.34;5101671;28;20436;-65
2022/08/11 02:55:31;;;;;;;6.70;5.50;;;;;;;19.59;61.91;102123.91;5118776;28;20424;-66
2022/08/11 02:57:57;;;;;;;7.93;5.37;;;;;;;20.10;60.77;102120.97;5118879;28;20733;-65
2022/08/11 03:00:22;;;;;;;6.20;5.60;;;;;;;19.62;61.68;102116.84;5118936;28;20542;-66
2022/08/11 03:03:23;;;;;;;5.93;5.40;;;;;;;20.09;60.43;102124.50;5118061;28;20178;-66
2022/08/11 03:05:54;;;;;;;5.90;5.10;;;;;;;20.13;60.31;102124.47;5075908;28;20183;-65
2022/08/11 03:08:50;;;;;;;7.47;5.40;;;;;;;20.02;60.21;102121.03;5118079;28;20473;-67
2022/08/11 03:17:13;;;;;;;7.70;5.93;;;;;;;19.82;60.95;102123.81;5118825;28;20818;-67
2022/08/11 03:19:48;;;;;;;6.00;5.40;;;;;;;20.08;60.54;102123.63;5118679;28;20388;-66
2022/08/11 03:22:24;;;;;;;5.97;5.37;;;;;;;19.84;60.90;102120.25;5118727;28;20416;-66
2022/08/11 03:25:02;;;;;;;8.17;5.40;;;;;;;20.03;60.21;102123.66;5117744;28;20395;-66
2022/08/11 03:27:45;;;;;;;6.17;5.20;;;;;;;19.52;61.37;102123.06;5117923;28;20421;-66
2022/08/11 03:30:14;;;;;;;6.07;5.47;;;;;;;19.81;61.73;102125.59;5117752;28;20405;-66
2022/08/11 03:35:59;;;;;;;6.37;5.70;;;;;;;19.67;61.47;102130.94;5117907;28;20420;-66
2022/08/11 03:38:37;;;;;;;6.60;5.60;;;;;;;19.85;61.08;102119.38;5118548;28;20431;-66
2022/08/11 03:44:13;;;;;;;7.90;5.40;;;;;;;19.83;61.12;102118.50;5118402;28;20486;-66
2022/08/11 03:46:47;;;;;;;6.40;5.80;;;;;;;19.97;61.07;102122.81;5117865;28;20462;-69
2022/08/11 03:49:30;;;;;;;6.70;6.00;;;;;;;19.50;62.44;102115.16;5118432;28;20440;-67
2022/08/11 03:52:13;;;;;;;7.43;5.80;;;;;;;19.92;61.40;102117.56;5117752;28;20417;-68
2022/08/11 03:55:09;;;;;;;6.50;5.90;;;;;;;19.71;61.83;102126.50;5117473;28;20459;-70
2022/08/11 03:57:55;;;;;;;6.70;6.07;;;;;;;19.78;61.64;102124.69;5117488;28;20548;-70
2022/08/11 04:00:35;;;;;;;6.13;5.63;;;;;;;19.83;61.60;102126.44;5118621;28;20785;-68
2022/08/11 04:03:22;;;;;;;6.90;6.00;;;;;;;19.72;62.13;102128.25;5118194;28;20409;-68
2022/08/11 04:06:22;;;;;;;7.27;6.57;;;;;;;19.64;61.90;102123.00;5118178;28;20409;-68
2022/08/11 04:08:53;;;;;;;9.60;6.00;;;;;;;19.70;62.13;102122.09;5118169;28;20382;-66
2022/08/11 04:11:40;;;;;;;7.67;6.17;;;;;;;19.77;62.02;102131.75;5118297;28;20690;-68
2022/08/11 04:18:15;;;;;;;6.87;6.20;;;;;;;19.60;62.54;102131.84;5090398;28;20777;-67
2022/08/11 04:20:57;;;;;;;7.50;6.73;;;;;;;19.57;62.85;102129.22;5118030;28;20401;-67
2022/08/11 04:23:48;;;;;;;7.13;6.50;;;;;;;19.71;62.75;102129.13;5120519;28;20416;-67
2022/08/11 04:26:40;;;;;;;7.10;6.50;;;;;;;19.76;62.22;102123.84;5121508;28;20432;-67
2022/08/11 04:29:36;;;;;;;6.60;6.00;;;;;;;19.87;62.03;102118.50;5122008;28;20402;-68
2022/08/11 04:32:20;;;;;;;7.43;6.70;;;;;;;19.97;61.84;102121.06;5099223;28;20421;-68
2022/08/11 04:35:14;;;;;;;10.50;6.23;;;;;;;21.08;58.79;102121.78;5101376;28;20467;-69
2022/08/11 04:37:48;;;;;;;11.97;10.77;;;;;;;22.49;54.61;102104.66;5102972;28;20446;-69
2022/08/11 04:40:43;;;;;;;6.57;5.97;;;;;;;23.20;51.58;102105.03;5102209;28;20425;-68
2022/08/11 04:43:35;;;;;;;5.90;5.40;;;;;;;23.60;51.09;102112.16;5101587;28;20430;-67
2022/08/11 04:46:44;;;;;;;6.40;5.03;;;;;;;24.12;49.44;102111.81;5101455;28;20501;-67
2022/08/11 05:01:49;;;;;;;7.33;5.50;;;;;;;25.10;46.72;102105.63;5080530;28;20422;-67
2022/08/11 05:08:04;;;;;;;6.80;5.47;;;;;;;23.90;49.04;102109.69;5095163;28;20408;-69
2022/08/11 05:11:00;;;;;;;7.87;5.60;;;;;;;23.28;51.13;102116.41;5101083;28;20402;-68
2022/08/11 05:36:47;;;;;;;7.87;5.73;;;;;;;28.51;39.37;102100.34;5099512;28;20452;-69
2022/08/11 05:56:17;;;;;;;7.30;4.80;;;;;;;29.83;34.43;102092.38;5099178;28;20453;-67
2022/08/11 05:58:45;;;;;;;6.80;4.40;;;;;;;28.54;37.29;102102.88;5098991;28;20461;-68
2022/08/11 06:01:21;;;;;;;6.20;4.70;;;;;;;29.71;35.14;102104.63;5098987;28;20421;-67
2022/08/11 06:06:35;;;;;;;5.17;4.50;;;;;;;31.34;31.42;102098.81;5098867;28;20429;-65
2022/08/11 06:09:01;;;;;;;9.73;4.60;;;;;;;31.42;32.18;102096.56;5098641;28;20464;-68
2022/08/11 06:11:28;;;;;;;8.33;4.40;;;;;;;31.31;31.52;102104.38;5099298;28;20422;-68
2022/08/11 06:13:55;;;;;;;6.50;4.80;;;;;;;31.91;30.54;102104.47;5098867;28;20421;-68
2022/08/11 06:16:23;;;;;;;7.47;4.73;;;;;;;30.86;32.25;102098.75;5099309;28;20494;-68
2022/08/11 06:18:49;;;;;;;7.30;4.70;;;;;;;32.34;29.37;102098.38;5098458;28;20461;-69
2022/08/11 06:21:15;;;;;;;6.93;4.50;;;;;;;31.97;30.23;102097.00;5099525;28;20414;-68
2022/08/11 06:23:41;;;;;;;5.73;4.60;;;;;;;32.72;28.73;102102.38;5098354;28;20186;-69
2022/08/11 06:26:08;;;;;;;5.27;4.77;;;;;;;33.06;28.25;102108.34;5099225;28;20665;-66
2022/08/11 06:28:36;;;;;;;9.80;4.50;;;;;;;31.07;31.67;102107.50;5098871;28;20188;-67
2022/08/11 06:31:13;;;;;;;8.73;4.50;;;;;;;30.99;29.90;102104.34;5098494;28;20418;-68
2022/08/11 06:34:02;;;;;;;9.10;5.43;;;;;;;31.90;30.13;102105.44;5098279;28;20437;-68
2022/08/11 06:36:34;;;;;;;6.77;4.33;;;;;;;33.16;28.75;102104.03;5098981;28;20489;-69
2022/08/11 06:39:28;;;;;;;9.40;4.70;;;;;;;32.70;28.87;102105.16;5098139;28;20426;-68
2022/08/11 06:42:03;;;;;;;6.70;4.60;;;;;;;32.36;29.03;102104.53;5097958;28;20414;-68
2022/08/11 06:44:39;;;;;;;12.00;4.93;;;;;;;31.83;30.26;102104.06;5098553;28;20426;-68
2022/08/11 06:47:07;;;;;;;12.37;4.60;;;;;;;32.53;28.70;102105.31;5098045;28;20425;-69
2022/08/11 06:52:28;;;;;;;10.97;4.90;;;;;;;30.62;31.27;102109.00;5098977;28;20422;-67
2022/08/11 06:55:05;;;;;;;8.10;4.87;;;;;;;30.54;32.38;102110.31;5097659;28;20553;-68
2022/08/11 07:00:28;;;;;;;17.13;5.00;;;;;;;30.98;31.74;102107.97;5097947;28;20429;-69
2022/08/11 07:03:09;;;;;;;10.43;5.50;;;;;;;34.00;27.60;102102.13;5098300;28;20501;-68
2022/08/11 07:05:54;;;;;;;7.00;4.83;;;;;;;33.74;27.70;102103.91;5098415;28;20654;-68
2022/08/11 07:17:42;;;;;;;12.70;5.40;;;;;;;35.00;26.09;102091.56;5098310;28;20733;-67
2022/08/11 07:31:25;;;;;;;9.13;4.53;;;;;;;32.01;29.15;102102.09;5098182;28;20424;-66
2022/08/11 07:33:54;;;;;;;10.30;4.97;;;;;;;32.90;28.56;102105.75;5097991;28;20409;-67
2022/08/11 07:36:21;;;;;;;10.53;4.90;;;;;;;33.40;26.85;102106.16;5098041;28;20730;-69
2022/08/11 07:38:50;;;;;;;9.73;4.53;;;;;;;32.17;29.00;102110.19;5097254;28;20457;-67
2022/08/11 07:41:17;;;;;;;10.37;4.70;;;;;;;33.13;28.10;102104.25;5097811;28;20414;-68
2022/08/11 07:43:48;;;;;;;12.43;4.70;;;;;;;33.18;28.12;102102.13;5097963;28;20444;-67
2022/08/11 07:54:29;;;;;;;8.77;4.73;;;;;;;35.46;24.66;102098.16;5097066;28;20490;-68
2022/08/11 07:56:55;;;;;;;13.30;4.90;;;;;;;34.66;25.79;102102.09;5097779;28;20433;-68
2022/08/11 08:18:33;;;;;;;7.20;4.77;;;;;;;36.86;23.38;102108.16;5100996;28;20500;-67
2022/08/11 08:21:10;;;;;;;9.87;4.40;;;;;;;36.40;24.12;102100.97;5100930;28;20679;-67
2022/08/11 08:23:37;;;;;;;12.23;4.37;;;;;;;36.65;23.33;102099.88;5101450;28;20429;-66
2022/08/11 08:26:57;;;;;;;7.57;4.33;;;;;;;36.12;24.42;102103.13;5100738;28;20465;-68
2022/08/11 08:28:51;;;;;;;7.63;4.43;;;;;;;34.58;25.79;102107.19;5100730;28;20413;-69
2022/08/11 08:31:17;;;;;;;5.27;4.17;;;;;;;35.28;24.97;102105.78;5101418;28;20663;-67
2022/08/11 08:33:42;;;;;;;6.57;4.50;;;;;;;34.13;26.36;102112.16;5101251;28;20794;-68
2022/08/11 08:36:11;;;;;;;6.23;4.30;;;;;;;34.65;26.09;102110.34;5100959;28;20160;-68
2022/08/11 08:38:41;;;;;;;12.57;4.30;;;;;;;34.82;26.29;102110.03;5100234;28;20207;-69
2022/08/11 08:41:07;;;;;;;8.23;4.47;;;;;;;35.51;25.01;102106.81;5082665;28;20425;-69
2022/08/11 08:43:34;;;;;;;5.53;4.47;;;;;;;36.70;23.86;102099.50;5100845;28;20731;-70
2022/08/11 08:46:00;;;;;;;10.80;4.20;;;;;;;36.69;24.28;102100.50;5100434;28;20425;-69
2022/08/11 08:48:27;;;;;;;7.70;4.17;;;;;;;35.81;24.05;102094.59;5101071;28;20500;-68
2022/08/11 08:53:49;;;;;;;8.47;4.83;;;;;;;30.00;31.06;102115.75;5100300;28;20599;-69
2022/08/11 08:56:14;;;;;;;12.93;4.77;;;;;;;32.08;28.98;102103.50;5100937;28;20449;-69
2022/08/11 08:58:41;;;;;;;5.03;3.83;;;;;;;34.04;26.53;102100.09;5099931;28;20457;-69
2022/08/11 09:01:08;;;;;;;5.30;4.10;;;;;;;35.35;25.14;102082.69;5100058;28;20168;-67
2022/08/11 09:03:37;;;;;;;10.33;4.10;;;;;;;34.30;26.18;102089.28;5100860;28;20397;-66
2022/08/11 09:06:02;;;;;;;3.70;3.40;;;;;;;32.31;27.62;102100.38;5100097;28;20409;-66
2022/08/11 09:08:30;;;;;;;5.27;3.80;;;;;;;33.00;26.44;102093.38;5099110;28;20506;-67
2022/08/11 09:13:43;;;;;;;7.93;3.53;;;;;;;32.88;27.02;102089.63;5100331;28;20429;-66
2022/08/11 09:16:09;;;;;;;5.27;3.70;;;;;;;35.11;25.42;102082.63;5100440;28;20413;-66
2022/08/11 09:18:35;;;;;;;4.13;3.73;;;;;;;35.00;25.24;102074.44;5099660;28;20457;-70
2022/08/11 09:21:02;;;;;;;4.83;3.67;;;;;;;35.62;23.76;102068.00;5099779;28;20410;-69
2022/08/11 09:28:56;;;;;;;4.70;3.20;;;;;;;36.20;23.07;102068.06;5099552;28;20487;-68
2022/08/11 09:31:22;;;;;;;3.50;3.20;;;;;;;37.32;21.30;102059.16;5099500;28;20410;-70
2022/08/11 09:33:50;;;;;;;4.53;3.43;;;;;;;35.18;23.14;102069.50;5099314;28;20224;-69
2022/08/11 09:41:48;;;;;;;5.10;3.50;;;;;;;35.53;23.45;102066.00;5099952;28;20420;-66
2022/08/11 09:46:58;;;;;;;6.53;3.17;;;;;;;36.84;21.22;102057.66;5099427;28;20413;-69
2022/08/11 09:49:24;;;;;;;4.20;3.20;;;;;;;35.61;23.45;102055.44;5099708;28;20432;-67
2022/08/11 09:51:50;;;;;;;4.83;3.20;;;;;;;35.59;23.25;102049.28;5099681;28;20421;-67
2022/08/11 09:54:16;;;;;;;5.20;3.20;;;;;;;37.13;21.63;102041.66;5099583;28;20453;-67
2022/08/11 09:59:26;;;;;;;3.50;3.20;;;;;;;37.29;20.60;102041.22;5099529;28;20528;-67
2022/08/11 10:01:58;;;;;;;3.60;3.30;;;;;;;36.23;22.43;102046.09;5099410;28;20516;-67
2022/08/11 10:04:47;;;;;;;7.00;3.80;;;;;;;36.63;21.18;102033.06;5098678;28;20171;-67
2022/08/11 10:07:14;;;;;;;5.37;3.10;;;;;;;37.67;20.44;102028.09;5099459;28;20414;-70
2022/08/11 10:09:47;;;;;;;7.10;3.20;;;;;;;36.11;21.75;102032.66;5098708;28;20406;-69
2022/08/11 10:12:24;;;;;;;3.50;3.20;;;;;;;35.04;23.27;102024.44;5099205;28;20414;-70
2022/08/11 10:20:31;;;;;;;3.70;3.20;;;;;;;32.24;26.16;102024.31;5098420;28;20416;-70
2022/08/11 10:28:28;;;;;;;5.20;3.33;;;;;;;34.33;24.52;102011.50;5098424;28;20494;-70
2022/08/11 10:36:23;;;;;;;3.53;3.07;;;;;;;33.57;23.98;102016.69;5098393;28;20843;-69
2022/08/11 10:38:51;;;;;;;3.57;3.27;;;;;;;33.46;24.52;102007.56;5097788;28;20461;-69
2022/08/11 10:44:02;;;;;;;6.40;3.30;;;;;;;33.13;24.77;102012.38;5098645;28;20459;-69
2022/08/11 10:49:12;;;;;;;4.17;3.47;;;;;;;35.57;22.75;101995.16;5098677;28;20416;-67
2022/08/11 10:59:53;;;;;;;3.10;2.90;;;;;;;34.78;22.06;101992.00;5098494;28;20508;-69
2022/08/11 11:02:20;;;;;;;4.40;3.40;;;;;;;35.84;21.59;101995.84;5097523;28;20471;-69
2022/08/11 11:04:57;;;;;;;3.60;3.23;;;;;;;34.23;23.29;101983.28;5097631;28;20425;-69
2022/08/11 11:07:30;;;;;;;3.50;3.20;;;;;;;34.03;24.01;101985.59;5097523;28;20171;-67
2022/08/11 11:10:02;;;;;;;4.13;3.33;;;;;;;32.80;25.81;101994.72;5097525;28;20414;-70
2022/08/11 11:18:08;;;;;;;5.67;3.50;;;;;;;35.27;22.59;101973.06;5097733;28;20538;-66
2022/08/11 11:20:47;;;;;;;3.97;3.40;;;;;;;34.79;23.03;101980.19;5098437;28;20418;-65
2022/08/11 11:23:27;;;;;;;4.50;3.27;;;;;;;31.44;26.66;101992.22;5097542;28;20532;-67
2022/08/11 11:26:13;;;;;;;4.17;3.47;;;;;;;33.46;24.31;101986.78;5098264;28;20421;-68
2022/08/11 11:28:47;;;;;;;3.70;3.40;;;;;;;31.87;26.17;101992.38;5095574;28;20764;-70
2022/08/11 11:31:34;;;;;;;6.80;3.40;;;;;;;31.85;25.96;101986.22;5086690;28;20505;-71
2022/08/11 11:34:02;;;;;;;3.37;3.13;;;;;;;33.99;24.11;101980.50;5091432;28;20425;-68
2022/08/11 11:36:38;;;;;;;3.47;3.17;;;;;;;33.23;23.71;101986.50;5098304;28;20406;-68
2022/08/11 11:39:05;;;;;;;4.30;3.43;;;;;;;33.17;23.73;101978.78;5089735;28;20465;-68
2022/08/11 11:41:31;;;;;;;3.73;3.30;;;;;;;34.27;23.15;101973.13;5097492;28;20407;-69
2022/08/11 11:43:57;;;;;;;4.50;3.43;;;;;;;35.05;22.58;101975.53;5097003;28;20480;-69
2022/08/11 11:46:25;;;;;;;6.00;3.47;;;;;;;34.76;22.97;101977.69;5098267;28;20203;-68
2022/08/11 11:48:52;;;;;;;4.73;3.43;;;;;;;31.29;25.56;101985.03;5097748;28;20492;-68
2022/08/11 11:51:19;;;;;;;3.50;3.20;;;;;;;30.74;26.47;101979.13;5097893;28;20467;-68
2022/08/11 11:53:46;;;;;;;4.83;3.10;;;;;;;31.55;25.57;101981.69;5097226;28;20458;-68
2022/08/11 11:56:13;;;;;;;3.77;3.10;;;;;;;31.50;25.49;101994.56;5097246;28;20433;-69
2022/08/11 12:01:24;;;;;;;7.73;3.33;;;;;;;32.71;23.87;101971.88;5097977;28;20472;-70
2022/08/11 12:03:51;;;;;;;6.27;3.50;;;;;;;33.73;22.89;101975.03;5083738;28;20415;-68
2022/08/11 12:06:19;;;;;;;3.50;3.20;;;;;;;32.27;24.40;101975.56;5077026;28;20422;-69
2022/08/11 12:08:48;;;;;;;4.10;3.50;;;;;;;33.90;22.68;101963.94;5076986;28;20691;-68
2022/08/11 12:14:01;;;;;;;4.30;3.33;;;;;;;31.37;25.40;101969.28;5076850;28;20418;-70
2022/08/11 12:16:28;;;;;;;3.37;3.07;;;;;;;32.05;24.56;101967.91;5076929;28;20800;-69
2022/08/11 12:18:55;;;;;;;3.50;3.20;;;;;;;31.63;25.41;101972.28;5077474;28;20489;-67
2022/08/11 12:21:22;;;;;;;4.03;3.63;;;;;;;32.64;24.00;101967.81;5077482;28;20419;-66
2022/08/11 12:29:18;;;;;;;3.87;3.30;;;;;;;32.63;23.89;101955.28;5076759;28;20844;-67
2022/08/11 12:31:44;;;;;;;3.47;3.17;;;;;;;31.73;25.21;101954.56;5077346;28;20406;-67
2022/08/11 12:34:12;;;;;;;5.87;3.43;;;;;;;33.14;24.09;101948.38;5076533;28;20490;-66
2022/08/11 12:36:40;;;;;;;4.93;3.07;;;;;;;32.23;24.62;101949.72;5079826;28;20220;-69
2022/08/11 12:39:08;;;;;;;4.10;3.10;;;;;;;32.18;24.85;101943.78;5097227;28;20457;-69
2022/08/11 12:47:03;;;;;;;4.80;3.37;;;;;;;32.58;24.86;101928.59;5101259;28;20417;-69
2022/08/11 12:52:21;;;;;;;7.37;3.50;;;;;;;33.47;24.18;101920.09;5100582;28;20682;-68
2022/08/11 12:54:48;;;;;;;4.57;3.57;;;;;;;31.20;25.46;101929.88;5099934;28;20454;-68
2022/08/11 13:05:33;;;;;;;3.37;3.07;;;;;;;31.81;24.23;101917.25;5100686;28;20729;-67
2022/08/11 13:08:02;;;;;;;3.70;3.40;;;;;;;32.96;23.36;101910.81;5100971;28;20402;-68
2022/08/11 13:13:13;;;;;;;3.47;3.17;;;;;;;30.60;26.14;101920.69;5100328;28;20421;-68
2022/08/11 13:15:39;;;;;;;3.20;2.90;;;;;;;31.07;25.60;101910.88;5100539;28;20432;-68
2022/08/11 13:18:06;;;;;;;4.00;3.10;;;;;;;31.96;24.31;101901.94;5100471;28;20469;-65
2022/08/11 13:20:32;;;;;;;3.50;3.00;;;;;;;31.65;24.22;101901.16;5100049;28;20251;-66
2022/08/11 13:23:02;;;;;;;4.27;3.10;;;;;;;31.39;25.08;101906.28;5099616;28;20442;-70
2022/08/11 13:25:30;;;;;;;4.30;3.20;;;;;;;31.86;24.25;101896.22;5100475;28;20419;-69
2022/08/11 13:27:58;;;;;;;3.00;2.70;;;;;;;30.01;26.74;101897.00;5099935;28;20678;-68
2022/08/11 13:33:12;;;;;;;4.10;3.10;;;;;;;32.10;24.55;101886.69;5100358;28;20429;-67
2022/08/11 13:35:37;;;;;;;3.73;3.10;;;;;;;31.65;24.71;101879.59;5100084;28;20808;-70
2022/08/11 13:38:04;;;;;;;4.33;3.10;;;;;;;31.98;24.51;101878.41;5099212;28;20196;-69
2022/08/11 13:40:31;;;;;;;3.50;3.10;;;;;;;31.41;24.55;101880.09;5099698;28;20169;-68
2022/08/11 13:42:57;;;;;;;3.13;2.90;;;;;;;31.26;25.33;101877.44;5099054;28;20472;-66
2022/08/11 13:45:24;;;;;;;3.63;3.20;;;;;;;31.34;24.78;101877.88;5099320;28;20414;-68
2022/08/11 13:47:52;;;;;;;4.90;3.10;;;;;;;30.96;25.44;101887.25;5100434;28;20410;-68
2022/08/11 13:50:18;;;;;;;3.57;3.27;;;;;;;31.21;25.73;101877.72;5099139;28;20422;-67
2022/08/11 13:52:44;;;;;;;3.33;3.03;;;;;;;32.15;24.38;101874.69;5099874;28;20414;-67
2022/08/11 13:55:20;;;;;;;3.70;3.27;;;;;;;31.09;25.29;101873.06;5097998;28;20473;-66
2022/08/11 13:57:47;;;;;;;3.10;2.90;;;;;;;31.44;23.66;101876.34;5098779;28;20872;-66
2022/08/11 14:00:13;;;;;;;3.73;3.10;;;;;;;32.01;22.75;101866.56;5099326;28;20677;-66
2022/08/11 14:02:44;;;;;;;2.90;2.70;;;;;;;32.29;23.17;101862.16;5099921;28;20433;-67
2022/08/11 14:05:18;;;;;;;3.70;3.27;;;;;;;32.18;23.49;101852.91;5098799;28;20274;-68
2022/08/11 14:07:50;;;;;;;4.37;2.83;;;;;;;31.81;23.41;101857.03;5098820;28;20410;-67
2022/08/11 14:10:18;;;;;;;4.00;3.13;;;;;;;32.34;23.10;101852.78;5098753;28;20414;-66
2022/08/11 14:15:34;;;;;;;3.60;3.23;;;;;;;33.37;23.60;101850.44;5098958;28;20426;-69
2022/08/11 14:18:04;;;;;;;4.23;2.73;;;;;;;31.26;25.64;101869.34;5098626;28;20458;-68
2022/08/11 14:23:28;;;;;;;6.37;3.20;;;;;;;32.89;24.05;101844.69;5098734;28;20751;-68
2022/08/11 14:28:38;;;;;;;3.70;3.40;;;;;;;30.75;26.02;101848.97;5098447;28;20476;-66
2022/08/11 14:31:06;;;;;;;2.90;2.70;;;;;;;29.87;26.94;101852.03;5098581;28;20823;-67
2022/08/11 14:33:32;;;;;;;5.67;3.30;;;;;;;30.35;26.84;101845.84;5098319;28;20168;-67
2022/08/11 14:35:58;;;;;;;4.10;3.10;;;;;;;30.90;26.21;101840.00;5081466;28;20517;-67
2022/08/11 14:38:23;;;;;;;3.50;2.90;;;;;;;31.19;25.45;101836.53;5098425;28;20537;-67
2022/08/11 14:49:01;;;;;;;3.60;3.30;;;;;;;31.74;25.68;101821.50;5098393;28;20433;-67
2022/08/11 14:51:27;;;;;;;5.83;3.30;;;;;;;31.26;25.53;101821.75;5097859;28;20428;-66
2022/08/11 14:56:34;;;;;;;5.73;3.70;;;;;;;31.80;25.22;101825.66;5097504;28;20224;-67
2022/08/11 14:56:39;;;;;;;6.80;3.10;;;;;;;31.71;25.75;101824.41;5098641;28;20187;-67
2022/08/11 14:59:04;;;;;;;4.67;3.00;;;;;;;32.27;24.81;101810.09;5097688;28;20518;-67
2022/08/11 15:04:15;;;;;;;3.50;3.20;;;;;;;31.41;25.97;101814.56;5097666;28;20237;-67
2022/08/11 15:06:41;;;;;;;3.50;3.20;;;;;;;30.83;27.07;101817.06;5098384;28;20429;-67
2022/08/11 15:09:07;;;;;;;4.43;3.20;;;;;;;30.86;26.76;101819.56;5097735;28;20875;-68
2022/08/11 15:17:06;;;;;;;3.10;2.87;;;;;;;30.69;27.14;101817.91;5098283;28;20178;-69
2022/08/11 15:17:07;;;;;;;4.80;3.07;;;;;;;32.14;25.55;101808.19;5098214;28;20463;-68
2022/08/11 15:19:34;;;;;;;7.53;3.50;;;;;;;31.58;25.84;101811.66;5098182;28;20410;-69
2022/08/11 15:24:44;;;;;;;6.10;3.30;;;;;;;31.37;25.70;101804.94;5097756;28;20515;-70
2022/08/11 15:38:20;;;;;;;8.10;3.20;;;;;;;31.06;27.45;101787.94;5097137;28;20519;-68
2022/08/11 15:46:30;;;;;;;5.80;3.20;;;;;;;28.81;31.57;101796.63;5097339;28;20432;-68
2022/08/11 15:49:12;;;;;;;5.10;3.30;;;;;;;29.67;29.79;101796.63;5097092;28;20418;-69
2022/08/11 15:51:49;;;;;;;6.03;3.57;;;;;;;30.20;29.57;101791.97;5097260;28;20406;-69
2022/08/11 15:54:24;;;;;;;3.50;3.23;;;;;;;30.80;28.71;101790.34;5096916;28;20462;-70
2022/08/11 15:56:51;;;;;;;3.80;3.50;;;;;;;31.17;28.32;101793.53;5097055;28;20440;-67
2022/08/11 16:04:43;;;;;;;4.00;3.37;;;;;;;29.26;31.12;101790.81;5097036;28;20830;-70
2022/08/11 16:07:11;;;;;;;5.63;3.83;;;;;;;30.55;29.57;101789.09;5097057;28;20688;-68
2022/08/11 16:09:43;;;;;;;5.47;3.60;;;;;;;30.52;29.51;101775.81;5098054;28;20442;-67
2022/08/11 16:12:11;;;;;;;4.30;3.40;;;;;;;30.22;30.24;101787.34;5097742;28;20479;-67
2022/08/11 16:17:27;;;;;;;9.13;4.03;;;;;;;30.81;29.32;101785.81;5097692;28;20461;-68
2022/08/11 16:19:55;;;;;;;10.23;3.87;;;;;;;30.13;29.67;101782.50;5100832;28;20417;-67
2022/08/11 16:22:38;;;;;;;7.40;3.67;;;;;;;30.09;30.13;101775.56;5100911;28;20422;-68
2022/08/11 16:25:07;;;;;;;3.80;3.50;;;;;;;29.95;30.03;101781.72;5101117;28;20421;-68
2022/08/11 16:27:36;;;;;;;6.80;3.20;;;;;;;30.31;29.42;101769.84;5102025;28;20497;-69
2022/08/11 16:30:02;;;;;;;7.70;3.77;;;;;;;30.05;30.19;101776.69;5101493;28;20438;-68
2022/08/11 16:32:30;;;;;;;5.00;3.57;;;;;;;29.80;30.36;101775.34;5101381;28;20402;-68
2022/08/11 16:40:35;;;;;;;6.40;3.60;;;;;;;30.26;30.20;101777.31;5100721;28;20449;-67
2022/08/11 16:48:35;;;;;;;9.47;3.37;;;;;;;29.21;31.58;101780.28;5100718;28;20421;-72
2022/08/11 16:51:00;;;;;;;5.23;3.40;;;;;;;28.44;32.87;101779.66;5101140;28;20520;-69